Latest Coastal Weather Observations for Norah Head

IDN60701

Issued at 2:05 am EST Friday 25 April 2014 (issued every 10 minutes, with the page automatically refreshed every 10 minutes)

About coastal observations | Map of coastal stations | Coastal observations for NSW | Marine services | Other Formats
Station Details ID: 061366 Name: NORAH HEAD AWS Lat: -33.28 Lon: 151.58 Height: 18.8 m
Data from the previous 72 hours. | See also: Recent months at Norah Head
Date/Time
EST
Temp

°C
Wind Pressure Rain
since 9am
mm
Weather Cloud Vis
km
Sea
Height
m
Swell
Dir
 
Speed
knots
Gust
knots
hPa Trend Height
m
Period
s
Dir
25/02:00am 21.4 E 21 25 1018.1 - 0.0 - - - - - - -
25/01:30am 21.4 E 25 28 1018.0 - 0.0 - - - - - - -
25/01:00am 21.6 E 25 29 1017.9 - 0.0 - - - - - - -
25/12:30am 22.0 E 26 30 1017.7 - 0.0 - - - - - - -
25/12:00am 22.4 ESE 28 32 1017.0 - 0.0 - - - - - - -
 
Date/Time
EST
Temp

°C
Wind Pressure Rain
since 9am
mm
Weather Cloud Vis
km
Sea
Height
m
Swell
Dir
 
Speed
knots
Gust
knots
hPa Trend Height
m
Period
s
Dir
24/11:30pm 22.7 ESE 21 26 1016.9 - 0.0 - - - - - - -
24/11:00pm 22.3 SE 20 25 1016.8 - 0.0 - - - - - - -
24/10:37pm 23.1 ESE 17 29 1016.7 - 0.0 - - - - - - -
24/10:30pm 23.2 ESE 15 19 1016.7 - 0.0 - - - - - - -
24/10:00pm 22.4 ESE 14 17 1016.4 - 0.0 - - - - - - -
24/09:30pm 23.0 SE 9 11 1016.2 - 0.0 - - - - - - -
24/09:00pm 22.4 SE 7 10 1015.7 - 0.0 - - - - - - -
24/08:30pm 22.2 SSE 6 9 1015.3 - 0.0 - - - - - - -
24/08:00pm 23.0 CALM 0 0 1014.7 - 0.0 - - - - - - -
24/07:30pm 22.3 SSE 1 2 1014.5 - 0.0 - - - - - - -
24/07:00pm 22.3 SSW 2 6 1014.0 - 0.0 - - - - - - -
24/06:30pm 21.9 W 4 4 1013.6 - 0.0 - - - - - - -
24/06:00pm 22.4 W 4 5 1013.0 - 0.0 - - - - - - -
24/05:30pm 22.6 WNW 3 4 1012.6 - 0.0 - - - - - - -
24/05:00pm 23.8 W 3 5 1012.1 - 0.0 - - - - - - -
24/04:30pm 24.3 W 4 5 1011.9 - 0.0 - - - - - - -
24/04:00pm 25.8 W 3 4 1011.8 - 0.0 - - - - - - -
24/03:30pm 27.1 W 2 4 1011.8 - 0.0 - - - - - - -
24/03:00pm 27.5 W 3 5 1011.7 - 0.0 - - - - - - -
24/02:30pm 27.3 W 4 7 1011.8 - 0.0 - - - - - - -
24/02:00pm 27.8 W 5 8 1011.8 - 0.0 - - - - - - -
24/01:30pm 28.5 W 7 11 1012.0 - 0.0 - - - - - - -
24/01:00pm 27.7 W 4 10 1012.0 - 0.0 - - - - - - -
24/12:30pm 27.2 WSW 4 8 1012.5 - 0.0 - - - - - - -
24/12:00pm 25.2 N 3 4 1012.7 - 0.0 - - - - - - -
24/11:30am 24.7 NNE 3 4 1013.1 - 0.0 - - - - - - -
24/11:00am 23.4 ENE 3 4 1013.5 - 0.0 - - - - - - -
24/10:30am 22.9 E 1 2 1013.8 - 0.0 - - - - - - -
24/10:00am 21.5 SE 4 6 1013.9 - 0.0 - - - - - - -
24/09:30am 20.9 SSE 4 5 1014.0 - 0.0 - - - - - - -
24/09:00am 20.8 SSE 3 4 1014.0 - 0.0 - - - - - - -
24/08:30am 19.7 NNW 1 4 1014.0 - 0.0 - - - - - - -
24/08:00am 20.3 WNW 3 5 1013.6 - 0.0 - - - - - - -
24/07:30am 18.6 N 1 2 1013.5 - 0.0 - - - - - - -
24/07:00am 17.7 W 5 8 1013.0 - 0.0 - - - - - - -
24/06:30am 16.3 W 5 8 1013.0 - 0.0 - - - - - - -
24/06:00am 16.2 W 5 8 1012.7 - 0.0 - - - - - - -
24/05:30am 15.6 WSW 3 6 1012.9 - 0.0 - - - - - - -
24/05:00am 16.2 W 6 8 1012.7 - 0.0 - - - - - - -
24/04:30am 15.7 W 6 7 1012.9 - 0.0 - - - - - - -
24/04:00am 15.7 WNW 4 5 1012.9 - 0.0 - - - - - - -
24/03:30am 15.5 W 4 5 1013.0 - 0.0 - - - - - - -
24/03:00am 15.7 W 3 5 1013.2 - 0.0 - - - - - - -
24/02:30am 15.6 WNW 3 4 1013.5 - 0.0 - - - - - - -
24/02:00am 16.0 NW 3 4 1013.7 - 0.0 - - - - - - -
24/01:30am 16.8 NW 2 3 1014.2 - 0.0 - - - - - - -
24/01:00am 17.8 NNW 7 8 1014.3 - 0.0 - - - - - - -
24/12:30am 17.2 NNW 5 6 1014.5 - 0.0 - - - - - - -
24/12:00am 17.8 NW 7 8 1014.6 - 0.0 - - - - - - -
 
Date/Time
EST
Temp

°C
Wind Pressure Rain
since 9am
mm
Weather Cloud Vis
km
Sea
Height
m
Swell
Dir
 
Speed
knots
Gust
knots
hPa Trend Height
m
Period
s
Dir
23/11:30pm 17.0 NW 6 8 1014.8 - 0.0 - - - - - - -
23/11:00pm 17.5 NNW 7 8 1015.0 - 0.0 - - - - - - -
23/10:30pm 17.7 NW 6 8 1015.5 - 0.0 - - - - - - -
23/10:00pm 18.1 NW 6 9 1015.7 - 0.0 - - - - - - -
23/09:30pm 17.5 NW 6 8 1015.9 - 0.0 - - - - - - -
23/09:00pm 17.9 NW 6 9 1015.9 - 0.0 - - - - - - -
23/08:30pm 18.3 NNW 7 10 1016.0 - 0.0 - - - - - - -
23/08:00pm 18.3 NNW 5 6 1015.9 - 0.0 - - - - - - -
23/07:30pm 18.5 NW 4 5 1016.0 - 0.0 - - - - - - -
23/07:00pm 19.5 NNW 3 4 1016.0 - 0.0 - - - - - - -
23/06:30pm 20.4 ESE 4 5 1015.7 - 0.0 - - - - - - -
23/06:00pm 20.4 SE 4 5 1015.4 - 0.0 - - - - - - -
23/05:30pm 20.4 SE 6 7 1015.2 - 0.0 - - - - - - -
23/05:00pm 20.7 SE 7 9 1015.0 - 0.0 - - - - - - -
23/04:30pm 21.0 SSE 8 10 1014.9 - 0.0 - - - - - - -
23/04:00pm 21.7 SE 7 8 1014.8 - 0.0 - - - - - - -
23/03:30pm 22.0 SE 6 8 1015.2 - 0.0 - - - - - - -
23/03:00pm 23.0 SE 5 6 1015.0 - 0.0 - - - - - - -
23/02:30pm 23.1 ESE 3 4 1015.0 - 0.0 - - - - - - -
23/02:00pm 22.7 ESE 3 4 1014.9 - 0.0 - - - - - - -
23/01:30pm 22.8 ESE 3 4 1015.1 - 0.0 - - - - - - -
23/01:00pm 23.4 SSE 3 3 1015.4 - 0.0 - - - - - - -
23/12:30pm 23.6 SE 2 3 1015.8 - 0.0 - - - - - - -
23/12:00pm 22.8 SE 3 4 1016.3 - 0.0 - - - - - - -
23/11:30am 22.2 ENE 2 3 1016.6 - 0.0 - - - - - - -
23/11:00am 22.5 S 1 4 1016.8 - 0.0 - - - - - - -
23/10:30am 21.3 S 3 5 1017.2 - 0.0 - - - - - - -
23/10:00am 21.5 CALM 0 2 1017.4 - 0.0 - - - - - - -
23/09:30am 21.1 NW 1 3 1017.4 - 0.0 - - - - - - -
23/09:00am 19.3 CALM 0 2 1017.4 - 0.0 - - - - - - -
23/08:30am 18.1 W 7 11 1017.4 - 0.0 - - - - - - -
23/08:00am 17.7 W 7 10 1017.1 - 0.0 - - - - - - -
23/07:30am 16.8 W 8 13 1017.0 - 0.0 - - - - - - -
23/07:00am 16.1 W 5 10 1016.7 - 0.0 - - - - - - -
23/06:30am 14.5 WNW 2 6 1016.8 - 0.0 - - - - - - -
23/06:00am 15.6 SSW 3 7 1016.4 - 0.0 - - - - - - -
23/05:30am 16.4 WSW 7 11 1016.4 - 0.0 - - - - - - -
23/05:00am 17.3 WSW 9 12 1016.3 - 0.0 - - - - - - -
23/04:30am 16.6 WSW 5 10 1016.4 - 0.0 - - - - - - -
23/04:00am 17.4 SW 9 11 1016.2 - 0.0 - - - - - - -
23/03:30am 17.6 SW 9 11 1016.2 - 0.0 - - - - - - -
23/03:00am 17.8 SW 9 11 1016.1 - 0.0 - - - - - - -
23/02:30am 18.2 WSW 8 11 1016.3 - 0.0 - - - - - - -
23/02:00am 18.0 SW 8 12 1016.3 - 0.0 - - - - - - -
23/01:30am 18.2 WSW 7 10 1016.3 - 0.0 - - - - - - -
23/01:00am 18.1 WSW 3 6 1016.4 - 0.0 - - - - - - -
23/12:30am 18.8 WSW 4 6 1016.6 - 0.0 - - - - - - -
23/12:00am 18.6 W 5 7 1016.3 - 0.0 - - - - - - -
 
Date/Time
EST
Temp

°C
Wind Pressure Rain
since 9am
mm
Weather Cloud Vis
km
Sea
Height
m
Swell
Dir
 
Speed
knots
Gust
knots
hPa Trend Height
m
Period
s
Dir
22/11:30pm 18.5 W 5 7 1016.6 - 0.0 - - - - - - -
22/11:00pm 18.0 W 4 7 1016.7 - 0.0 - - - - - - -
22/10:30pm 17.8 W 4 6 1016.9 - 0.0 - - - - - - -
22/10:00pm 19.1 W 3 6 1016.7 - 0.0 - - - - - - -
22/09:30pm 20.3 W 5 7 1016.8 - 0.0 - - - - - - -
22/09:00pm 20.0 W 4 7 1016.8 - 0.0 - - - - - - -
22/08:30pm 19.1 W 4 6 1016.7 - 0.0 - - - - - - -
22/08:00pm 18.7 W 4 5 1016.4 - 0.0 - - - - - - -
22/07:30pm 18.8 WNW 4 5 1016.3 - 0.0 - - - - - - -
22/07:00pm 19.5 WNW 3 5 1016.1 - 0.0 - - - - - - -
22/06:30pm 19.8 W 3 4 1016.0 - 0.0 - - - - - - -
22/06:00pm 20.3 W 2 3 1015.7 - 0.0 - - - - - - -
22/05:30pm 20.6 CALM 0 2 1015.5 - 0.0 - - - - - - -
22/05:00pm 21.3 W 2 3 1015.2 - 0.0 - - - - - - -
22/04:30pm 22.4 WNW 2 4 1015.2 - 0.0 - - - - - - -
22/04:00pm 23.5 CALM 0 2 1015.2 - 0.0 - - - - - - -
22/03:30pm 24.4 WNW 1 4 1015.2 - 0.0 - - - - - - -
22/03:00pm 24.5 CALM 0 2 1015.2 - 0.0 - - - - - - -
22/02:30pm 24.3 W 2 5 1015.3 - 0.0 - - - - - - -
22/02:00pm 24.4 W 3 6 1015.2 - 0.0 - - - - - - -
22/01:30pm 24.7 WNW 3 7 1015.4 - 0.0 - - - - - - -
22/01:00pm 24.2 W 3 8 1015.6 - 0.0 - - - - - - -
22/12:30pm 24.2 WNW 2 5 1016.2 - 0.0 - - - - - - -
22/12:00pm 23.2 N 7 10 1016.6 - 0.0 - - - - - - -
22/11:30am 22.5 N 6 8 1017.3 - 0.0 - - - - - - -
22/11:00am 21.7 N 5 7 1017.6 - 0.0 - - - - - - -
22/10:30am 20.8 N 6 7 1018.1 - 0.0 - - - - - - -
22/10:00am 21.0 NNW 5 6 1018.3 - 0.0 - - - - - - -
22/09:30am 20.1 NW 5 6 1018.5 - 0.0 - - - - - - -
22/09:00am 18.8 WNW 3 5 1018.7 - 0.0 - - - - - - -
22/08:30am 18.0 WNW 2 4 1018.9 - 0.0 - - - - - - -
22/08:00am 17.3 WNW 1 3 1018.7 - 0.0 - - - - - - -
22/07:30am 15.9 W 2 3 1018.9 - 0.0 - - - - - - -
22/07:00am 14.6 W 2 3 1018.6 - 0.0 - - - - - - -
22/06:30am 14.1 CALM 0 1 1018.7 - 0.0 - - - - - - -
22/06:00am 14.2 CALM 0 0 1018.5 - 0.0 - - - - - - -
22/05:30am 14.2 W 2 4 1018.6 - 0.0 - - - - - - -
22/05:00am 14.5 W 4 5 1018.4 - 0.0 - - - - - - -
22/04:30am 14.4 W 2 4 1018.5 - 0.0 - - - - - - -
22/04:00am 14.6 W 3 4 1018.4 - 0.0 - - - - - - -
22/03:30am 14.7 W 3 5 1018.6 - 0.0 - - - - - - -
22/03:00am 15.3 W 5 7 1018.6 - 0.0 - - - - - - -
22/02:30am 15.0 W 5 7 1018.9 - 0.0 - - - - - - -

Other Formats:

Comma delimited format used in spreadsheet applications
http://www.bom.gov.au/fwo/IDN60701/IDN60701.95770.axf

JavaScript Object Notation format (JSON) in row-major order
http://www.bom.gov.au/fwo/IDN60701/IDN60701.95770.json